Terminal Aerodrome Forecast
Issued by NWS Goodland, KS

Home | Current Version | Previous Version | Text Only | Print | Product List | Glossary On
Versions: 1 2 3 4 5 6 7 8 9 10 11 12 13 14 15 16 17
000
FTUS43 KGLD 191200 AAA
TAFGLD
TAF AMD
KGLD 191234Z 1913/2012 19006KT 3/4SM BR VV002
      TEMPO 1913/1915 1/4SM FG VV002
     FM191500 17007KT P6SM SKC
     FM191700 15015KT P6SM SKC
     FM200500 18015KT P6SM SKC=

USA.gov is the U.S. government's official web portal to all federal, state and local government web resources and services.